• Join FlightAware (Why Join?)
  • Login
  • US Flag 
Rudolph Flight #1: Arrived! 
03:13AM EST


 

Airport Tracker/Info


-or-


 

Live Flight TrackerFlight Track Log ✈ ASQ4406 ✈ 13-May-2013 ✈ KIAH - KCRP

Flight Track Log - Related Links

Times and Time Zones

All times are in EDT time to prevent confusion due to time zone crossing. See the ASQ4406 flight status page for this flight to view local times or setup timezone preferences in your user account.

Time Position Orientation Groundspeed Altitude Reporting Facility
EDT Latitude Longitude Course Direction KTS MPH feet Rate Location/Type
07:12PM 29.9614 -95.3411 206° Southwest 165 190 700  Level Houston Center
07:12PM 29.9403 -95.3172 136° Southeast 179 206 1,900 1,620 Climbing Houston Center
07:13PM 29.9153 -95.2814 129° Southeast 224 258 3,000 2,340 Climbing Houston Center
07:14PM 29.8572 -95.2133 135° Southeast 246 283 6,300 2,700 Climbing Houston Center
07:15PM 29.6661 -95.5087 209° Southwest  Level FlightAware Approximate
07:15PM 29.7872 -95.1883 163° South 264 304 8,600  Level Houston Center
07:16PM 29.5885 -95.5564 206° Southwest  Level FlightAware Approximate
07:16PM 29.7233 -95.2333 211° Southwest 277 319 10,800  Level Houston Center
07:17PM 29.5093 -95.6004 206° Southwest  Level FlightAware Approximate
07:17PM 29.6608 -95.2989 222° Southwest 314 361 11,500  Level Houston Center
07:18PM 29.5919 -95.3722 223° Southwest 340 391 12,900 1,500 Climbing Houston Center
07:19PM 29.5072 -95.4625 223° Southwest 347 399 14,700 1,620 Climbing Houston Center
07:20PM 29.4394 -95.5431 226° Southwest 352 405 16,300 1,440 Climbing Houston Center
07:21PM 29.3703 -95.6239 226° Southwest 355 409 17,700 1,320 Climbing Houston Center
07:22PM 29.3003 -95.7033 225° Southwest 356 410 19,100 1,380 Climbing Houston Center
07:23PM 29.2306 -95.7836 225° Southwest 355 409 20,600 1,260 Climbing Houston Center
07:24PM 29.1622 -95.8644 226° Southwest 356 410 21,700 660 Climbing Houston Center
07:25PM 29.0739 -95.9669 225° Southwest 378 435 22,000 120 Climbing Houston Center
07:27PM 29.0031 -96.0467 225° Southwest 398 458 22,000 -60 Level Houston Center
07:28PM 28.9225 -96.1408 226° Southwest 411 473 21,900  Descending Houston Center
07:29PM 28.8278 -96.2483 225° Southwest 400 460 22,000  Climbing Houston Center
07:30PM 28.7472 -96.3403 225° Southwest 405 466 22,000 -180 Level Houston Center
07:31PM 28.6667 -96.4336 225° Southwest 411 473 21,700 -1,140 Descending Houston Center
07:32PM 28.5875 -96.5244 225° Southwest 406 467 19,700 -1,980 Descending Houston Center
07:33PM 28.5092 -96.6125 225° Southwest 399 459 17,700 -1,860 Descending Houston Center
07:34PM 28.4319 -96.7019 226° Southwest 396 456 15,900 -1,980 Descending Houston Center
07:35PM 28.3556 -96.7869 224° Southwest 391 450 13,900 -2,220 Descending Houston Center
07:35PM 28.3125 -96.8361 225° Southwest 388 447 12,800 -1,680 Descending Houston Center
07:36PM 28.2797 -96.8744 226° Southwest 386 444 12,000 -1,140 Descending Houston Center
07:36PM 28.2489 -96.9261 236° Southwest 373 429 11,700 -720 Descending Houston Center
07:37PM 28.2081 -96.9889 234° Southwest 370 426 11,300 -600 Descending Houston Center
07:37PM 28.1864 -97.0253 236° Southwest 368 423 11,100 -540 Descending Houston Center
07:38PM 28.1494 -97.0850 235° Southwest 370 426 10,800 -540 Descending Houston Center
07:38PM 28.1311 -97.1139 234° Southwest 361 415 10,600 -600 Descending Houston Center
07:39PM 28.0989 -97.1664 235° Southwest 326 375 10,200 -900 Descending Houston Center
07:39PM 28.0808 -97.1922 232° Southwest 273 314 9,700 -1,800 Descending Houston Center
07:40PM 28.0531 -97.2367 235° Southwest 287 330 8,400 -1,980 Descending Houston Center
07:40PM 28.0344 -97.2675 236° Southwest 274 315 7,700 -1,800 Descending Houston Center
07:41PM 28.0072 -97.3089 233° Southwest 283 326 6,600 -1,800 Descending Houston Center
07:41PM 27.9911 -97.3350 235° Southwest 278 320 5,900 -1,860 Descending Houston Center
07:42PM 27.9636 -97.3786 234° Southwest 276 318 4,700 -1,920 Descending Houston Center
07:42PM 27.9444 -97.4081 234° Southwest 270 311 4,000 -720 Descending Houston Center
07:43PM 27.9194 -97.4500 236° Southwest 274 315 4,000 -1,620 Level Houston Center
07:43PM 27.9031 -97.4728 231° Southwest 265 305 2,400 -1,620 Descending Houston Center
07:44PM 27.8636 -97.5353 234° Southwest 224 258 2,000 -420 Descending Houston Center